createdAt,value
2023-05-04T00:00:51.741Z,18.00
2023-05-04T00:03:19.234Z,15.30
2023-05-04T00:05:46.564Z,14.98
2023-05-04T00:08:13.861Z,15.47
2023-05-04T00:10:41.696Z,16.67
2023-05-04T00:13:09.088Z,15.98
2023-05-04T00:15:36.727Z,16.13
2023-05-04T00:18:05.454Z,17.05
2023-05-04T00:20:32.877Z,16.00
2023-05-04T00:23:00.152Z,15.55
2023-05-04T00:25:27.498Z,15.18
2023-05-04T00:27:54.706Z,15.75
2023-05-04T00:30:22.528Z,14.88
2023-05-04T00:32:49.980Z,16.40
2023-05-04T00:35:18.663Z,17.90
2023-05-04T00:37:46.574Z,16.58
2023-05-04T00:40:14.217Z,17.30
2023-05-04T00:42:41.447Z,16.63
2023-05-04T00:45:09.132Z,18.23
2023-05-04T00:47:36.780Z,15.73
2023-05-04T00:50:07.590Z,16.45
2023-05-04T00:52:37.656Z,17.33
2023-05-04T00:55:06.204Z,19.27
2023-05-04T00:57:33.821Z,19.83
2023-05-04T01:00:13.417Z,16.55
2023-05-04T01:02:43.132Z,17.23
2023-05-04T01:05:12.655Z,17.38
2023-05-04T01:07:52.734Z,17.30
2023-05-04T01:10:34.701Z,17.80
2023-05-04T01:13:07.625Z,17.63
2023-05-04T01:15:35.301Z,17.95
2023-05-04T01:18:02.854Z,17.48
2023-05-04T01:20:32.003Z,17.00
2023-05-04T01:23:01.144Z,19.27
2023-05-04T01:25:34.603Z,17.30
2023-05-04T01:28:08.904Z,17.63
2023-05-04T01:30:41.259Z,18.75
2023-05-04T01:33:09.577Z,17.95
2023-05-04T01:35:37.542Z,18.23
2023-05-04T01:38:06.482Z,20.55
2023-05-04T01:40:34.153Z,16.88
2023-05-04T01:43:01.359Z,19.40
2023-05-04T01:45:28.679Z,17.83
2023-05-04T01:47:55.922Z,18.97
2023-05-04T01:50:24.271Z,18.00
2023-05-04T01:52:51.729Z,17.33
2023-05-04T01:55:20.557Z,18.10
2023-05-04T01:57:47.834Z,17.63
2023-05-04T02:00:16.208Z,18.33
2023-05-04T02:02:43.689Z,21.40
2023-05-04T02:05:10.978Z,19.67
2023-05-04T02:07:38.380Z,19.35
2023-05-04T02:10:07.622Z,20.10
2023-05-04T02:12:38.259Z,18.97
2023-05-04T02:15:06.465Z,19.95
2023-05-04T02:17:34.130Z,19.10
2023-05-04T02:20:02.285Z,20.05
2023-05-04T02:22:29.770Z,19.58
2023-05-04T02:24:57.093Z,20.03
2023-05-04T02:27:24.208Z,19.80
2023-05-04T02:29:53.407Z,19.55
2023-05-04T02:32:20.726Z,18.73
2023-05-04T02:34:47.964Z,19.45
2023-05-04T02:37:16.440Z,20.30
2023-05-04T02:39:44.244Z,20.73
2023-05-04T02:42:11.595Z,20.75
2023-05-04T02:44:38.834Z,21.70
2023-05-04T02:47:07.540Z,20.08
2023-05-04T02:49:34.942Z,22.77
2023-05-04T02:52:02.342Z,21.08
2023-05-04T02:54:29.670Z,22.05
2023-05-04T02:56:56.908Z,19.40
2023-05-04T02:59:24.136Z,22.55
2023-05-04T03:01:51.525Z,22.73
2023-05-04T03:04:20.523Z,21.35
2023-05-04T03:06:47.791Z,21.85
2023-05-04T03:09:15.145Z,21.60
2023-05-04T03:11:44.056Z,22.08
2023-05-04T03:14:11.512Z,22.27
2023-05-04T03:16:38.746Z,23.95
2023-05-04T03:19:06.026Z,23.25
2023-05-04T03:21:34.880Z,22.90
2023-05-04T03:24:02.334Z,23.52
2023-05-04T03:26:29.561Z,22.30
2023-05-04T03:28:56.901Z,21.75
2023-05-04T03:31:24.337Z,22.88
2023-05-04T03:33:52.353Z,21.13
2023-05-04T03:36:19.596Z,23.80
2023-05-04T03:38:55.365Z,24.00
2023-05-04T03:41:22.786Z,23.30
2023-05-04T03:43:50.095Z,25.55
2023-05-04T03:46:17.318Z,25.35
2023-05-04T03:48:44.634Z,25.63
2023-05-04T03:51:12.149Z,24.90
2023-05-04T03:53:39.349Z,23.60
2023-05-04T03:56:08.707Z,25.65
2023-05-04T03:58:36.359Z,22.88
2023-05-04T04:01:04.071Z,25.00
2023-05-04T04:03:31.721Z,24.67
2023-05-04T04:05:59.361Z,24.20
2023-05-04T04:08:26.985Z,24.17
2023-05-04T04:10:54.469Z,25.17
2023-05-04T04:13:23.267Z,26.20
2023-05-04T04:15:51.009Z,23.63
2023-05-04T04:18:18.385Z,26.05
2023-05-04T04:20:46.232Z,26.42
2023-05-04T04:23:13.536Z,25.05
2023-05-04T04:25:41.029Z,25.42
2023-05-04T04:28:09.020Z,26.37
2023-05-04T04:30:38.398Z,23.98
2023-05-04T04:33:06.160Z,24.00
2023-05-04T04:35:33.315Z,24.08
2023-05-04T04:38:02.907Z,23.85
2023-05-04T04:40:32.823Z,23.63
2023-05-04T04:43:00.208Z,26.38
2023-05-04T04:45:27.711Z,23.13
2023-05-04T04:47:56.427Z,25.58
2023-05-04T04:50:28.111Z,22.00
2023-05-04T04:52:55.425Z,23.37
2023-05-04T04:55:26.153Z,20.30
2023-05-04T04:57:53.503Z,21.08
2023-05-04T05:00:22.911Z,21.73
2023-05-04T05:02:50.468Z,20.13
2023-05-04T05:05:19.626Z,23.87
2023-05-04T05:07:46.984Z,20.23
2023-05-04T05:10:16.232Z,20.90
2023-05-04T05:12:43.662Z,20.77
2023-05-04T05:15:11.551Z,19.42
2023-05-04T05:17:39.653Z,20.10
2023-05-04T05:20:11.429Z,21.77
2023-05-04T05:22:41.388Z,20.58
2023-05-04T05:25:09.048Z,19.55
2023-05-04T05:27:38.852Z,19.63
2023-05-04T05:30:07.739Z,19.33
2023-05-04T05:32:35.329Z,18.95
2023-05-04T05:35:04.666Z,21.33
2023-05-04T05:37:32.508Z,18.95
2023-05-04T05:40:01.283Z,23.48
2023-05-04T05:42:30.285Z,22.90
2023-05-04T05:44:58.385Z,19.65
2023-05-04T05:47:25.897Z,17.95
2023-05-04T05:49:54.810Z,18.15
2023-05-04T05:52:22.200Z,17.05
2023-05-04T05:54:52.066Z,19.80
2023-05-04T05:57:23.289Z,17.60
2023-05-04T05:59:50.819Z,15.77
2023-05-04T06:02:18.091Z,16.13
2023-05-04T06:04:45.588Z,17.92
2023-05-04T06:07:13.800Z,18.70
2023-05-04T06:09:41.079Z,17.13
2023-05-04T06:12:13.589Z,17.85
2023-05-04T06:14:43.087Z,19.50
2023-05-04T06:17:10.371Z,14.52
2023-05-04T06:19:40.744Z,16.23
2023-05-04T06:22:08.394Z,13.57
2023-05-04T06:24:35.785Z,15.73
2023-05-04T06:27:03.600Z,12.85
2023-05-04T06:29:31.015Z,14.82
2023-05-04T06:32:01.057Z,13.23
2023-05-04T06:34:29.753Z,15.27
2023-05-04T06:36:57.150Z,14.10
2023-05-04T06:39:24.735Z,12.18
2023-05-04T06:41:54.334Z,13.48
2023-05-04T06:44:21.869Z,13.63
2023-05-04T06:46:49.181Z,12.90
2023-05-04T06:49:18.184Z,15.98
2023-05-04T06:51:48.607Z,14.20
2023-05-04T06:54:15.962Z,13.90
2023-05-04T06:56:43.678Z,15.93
2023-05-04T06:59:11.176Z,14.35
2023-05-04T07:01:38.945Z,12.48
2023-05-04T07:04:06.574Z,13.85
2023-05-04T07:06:35.651Z,13.75
2023-05-04T07:09:03.297Z,12.13
2023-05-04T07:11:31.114Z,12.38
2023-05-04T07:14:02.164Z,12.50
2023-05-04T07:16:29.521Z,13.90
2023-05-04T07:18:57.579Z,13.82
2023-05-04T07:21:28.562Z,12.90
2023-05-04T07:23:57.933Z,15.43
2023-05-04T07:26:28.342Z,12.80
2023-05-04T07:28:55.699Z,14.00
2023-05-04T07:31:23.099Z,14.05
2023-05-04T07:33:50.687Z,15.27
2023-05-04T07:36:18.206Z,14.05
2023-05-04T07:38:47.524Z,12.85
2023-05-04T07:41:16.234Z,13.07
2023-05-04T07:43:44.156Z,12.90
2023-05-04T07:46:11.603Z,13.30
2023-05-04T07:48:39.205Z,13.70
2023-05-04T07:51:06.587Z,19.70
2023-05-04T07:53:34.163Z,12.88
2023-05-04T07:56:08.693Z,10.88
2023-05-04T07:58:37.953Z,10.50
2023-05-04T08:01:05.568Z,10.07
2023-05-04T08:03:34.874Z,11.95
2023-05-04T08:06:02.329Z,11.70
2023-05-04T08:08:29.683Z,13.40
2023-05-04T08:11:08.000Z,12.70
2023-05-04T08:13:47.849Z,10.55
2023-05-04T08:16:15.231Z,9.88
2023-05-04T08:18:44.902Z,11.93
2023-05-04T08:21:12.261Z,12.45
2023-05-04T08:23:41.140Z,10.27
2023-05-04T08:26:08.546Z,10.55
2023-05-04T08:28:38.069Z,11.52
2023-05-04T08:31:07.913Z,11.52
2023-05-04T08:33:41.883Z,10.48
2023-05-04T08:36:09.612Z,10.13
2023-05-04T08:38:53.684Z,10.23
2023-05-04T08:41:20.920Z,11.75
2023-05-04T08:43:49.460Z,11.60
2023-05-04T08:46:19.247Z,10.57
2023-05-04T08:48:47.741Z,10.70
2023-05-04T08:51:15.745Z,9.38
2023-05-04T08:53:47.305Z,10.65
2023-05-04T08:56:14.990Z,9.25
2023-05-04T08:58:49.570Z,9.80
2023-05-04T09:01:19.622Z,10.00
2023-05-04T09:03:47.909Z,9.80
2023-05-04T09:06:15.394Z,9.23
2023-05-04T09:08:43.031Z,9.80
2023-05-04T09:11:10.430Z,8.63
2023-05-04T09:13:38.023Z,8.77
2023-05-04T09:16:06.449Z,10.43
2023-05-04T09:18:39.667Z,10.05
2023-05-04T09:21:07.441Z,8.65
2023-05-04T09:23:45.389Z,8.48
2023-05-04T09:26:12.975Z,9.87
2023-05-04T09:28:40.336Z,8.00
2023-05-04T09:31:07.840Z,10.20
2023-05-04T09:34:09.854Z,8.98
2023-05-04T09:36:38.211Z,9.82
2023-05-04T09:39:12.360Z,8.37
2023-05-04T09:41:40.251Z,10.18
2023-05-04T09:44:18.128Z,9.25
2023-05-04T09:46:53.838Z,10.32
2023-05-04T09:49:34.664Z,9.07
2023-05-04T09:52:03.485Z,10.03
2023-05-04T09:54:35.235Z,9.88
2023-05-04T09:57:11.771Z,8.57
2023-05-04T09:59:40.029Z,10.93
2023-05-04T10:02:18.759Z,9.15
2023-05-04T10:04:52.374Z,7.87
2023-05-04T10:07:21.009Z,9.00
2023-05-04T10:09:51.393Z,9.18
2023-05-04T10:12:18.839Z,9.93
2023-05-04T10:14:47.468Z,9.23
2023-05-04T10:17:25.966Z,9.47
2023-05-04T10:20:11.288Z,9.00
2023-05-04T10:23:01.116Z,8.43
2023-05-04T10:25:46.473Z,7.75
2023-05-04T10:28:34.234Z,9.18
2023-05-04T10:31:02.383Z,7.43
2023-05-04T10:33:39.222Z,8.55
2023-05-04T10:36:09.000Z,7.65
2023-05-04T10:38:37.057Z,7.95
2023-05-04T10:41:14.500Z,8.18
2023-05-04T10:43:42.606Z,8.83
2023-05-04T10:46:19.917Z,10.05
2023-05-04T10:48:47.447Z,8.65
2023-05-04T10:51:21.397Z,13.48
2023-05-04T10:53:49.040Z,8.68
2023-05-04T10:56:23.702Z,8.40
2023-05-04T10:58:51.674Z,7.38
2023-05-04T11:01:19.632Z,7.95
2023-05-04T11:03:48.606Z,8.73
2023-05-04T11:06:22.735Z,7.00
2023-05-04T11:09:01.732Z,7.57
2023-05-04T11:11:30.010Z,7.10
2023-05-04T11:13:57.522Z,8.43
2023-05-04T11:16:25.206Z,9.60
2023-05-04T11:18:53.367Z,8.07
2023-05-04T11:21:29.197Z,7.57
2023-05-04T11:23:59.397Z,7.18
2023-05-04T11:26:28.786Z,7.90
2023-05-04T11:28:56.117Z,9.30
2023-05-04T11:31:23.442Z,8.18
2023-05-04T11:33:52.582Z,9.47
2023-05-04T11:36:25.404Z,8.10
2023-05-04T11:38:56.674Z,9.15
2023-05-04T11:41:34.190Z,7.68
2023-05-04T11:44:03.866Z,8.10
2023-05-04T11:46:33.362Z,7.77
2023-05-04T11:49:01.337Z,9.00
2023-05-04T11:51:30.063Z,8.50
2023-05-04T11:54:02.293Z,9.07
2023-05-04T11:56:41.147Z,9.65
2023-05-04T11:59:10.899Z,8.47
2023-05-04T12:01:38.622Z,7.15
2023-05-04T12:04:06.553Z,9.13
2023-05-04T12:10:41.313Z,8.25
2023-05-04T12:13:17.794Z,7.87
2023-05-04T12:15:45.409Z,9.38
2023-05-04T12:18:37.165Z,8.40
2023-05-04T12:21:12.233Z,8.77
2023-05-04T12:23:40.162Z,8.57
2023-05-04T12:26:08.606Z,8.50
2023-05-04T12:28:38.355Z,7.53
2023-05-04T12:31:07.125Z,10.65
2023-05-04T12:33:35.149Z,8.32
2023-05-04T12:36:03.878Z,7.30
2023-05-04T12:38:31.443Z,9.13
2023-05-04T12:41:00.814Z,8.52
2023-05-04T12:43:28.301Z,8.25
2023-05-04T12:45:57.316Z,7.40
2023-05-04T12:48:26.482Z,9.65
2023-05-04T12:50:53.716Z,7.27
2023-05-04T12:53:26.106Z,7.35
2023-05-04T12:55:53.678Z,7.60
2023-05-04T12:58:21.348Z,7.03
2023-05-04T13:00:49.324Z,7.47
2023-05-04T13:03:18.730Z,7.90
2023-05-04T13:05:47.490Z,10.88
2023-05-04T13:08:14.848Z,7.28
2023-05-04T13:10:43.043Z,14.48
2023-05-04T13:13:10.447Z,8.48
2023-05-04T13:15:38.057Z,7.33
2023-05-04T13:18:05.816Z,8.23
2023-05-04T13:20:35.020Z,7.40
2023-05-04T13:23:02.417Z,8.32
2023-05-04T13:25:29.763Z,8.05
2023-05-04T13:27:58.936Z,8.33
2023-05-04T13:30:26.969Z,10.95
2023-05-04T13:32:54.225Z,7.28
2023-05-04T13:35:21.787Z,6.13
2023-05-04T13:37:50.955Z,7.60
2023-05-04T13:40:19.654Z,8.00
2023-05-04T13:42:47.232Z,7.05
2023-05-04T13:45:14.734Z,7.55
2023-05-04T13:47:41.999Z,7.05
2023-05-04T13:50:10.521Z,7.32
2023-05-04T13:52:38.418Z,8.80
2023-05-04T13:55:08.644Z,7.45
2023-05-04T13:57:36.040Z,8.48
2023-05-04T14:00:08.219Z,7.82
2023-05-04T14:02:37.059Z,8.68
2023-05-04T14:05:04.823Z,7.03
2023-05-04T14:07:34.038Z,8.23
2023-05-04T14:10:03.705Z,6.80
2023-05-04T14:12:32.987Z,6.55
2023-05-04T14:15:01.446Z,7.07
2023-05-04T14:17:28.838Z,7.30
2023-05-04T14:19:56.416Z,8.02
2023-05-04T14:22:23.993Z,10.10
2023-05-04T14:24:51.411Z,6.72
2023-05-04T14:27:18.696Z,9.18
2023-05-04T14:29:48.707Z,6.67
2023-05-04T14:32:16.040Z,6.93
2023-05-04T14:34:43.474Z,8.10
2023-05-04T14:37:10.692Z,7.43
2023-05-04T14:39:40.778Z,8.02
2023-05-04T14:42:08.661Z,6.60
2023-05-04T14:44:35.911Z,6.88
2023-05-04T14:47:07.354Z,6.38
2023-05-04T14:49:37.576Z,6.93
2023-05-04T14:52:05.164Z,9.25
2023-05-04T14:54:32.662Z,7.20
2023-05-04T14:57:00.084Z,6.95
2023-05-04T14:59:27.748Z,6.68
2023-05-04T15:01:55.739Z,8.15
2023-05-04T15:04:24.512Z,8.23
2023-05-04T15:06:52.518Z,6.60
2023-05-04T15:09:19.906Z,6.70
2023-05-04T15:11:47.097Z,6.38
2023-05-04T15:14:14.913Z,6.88
2023-05-04T15:16:42.188Z,7.35
2023-05-04T15:19:09.419Z,6.27
2023-05-04T15:21:38.576Z,6.78
2023-05-04T15:24:06.251Z,6.97
2023-05-04T15:26:34.839Z,6.25
2023-05-04T15:29:02.368Z,6.15
2023-05-04T15:31:29.679Z,6.33
2023-05-04T15:33:56.944Z,6.93
2023-05-04T15:36:24.566Z,71.18
2023-05-04T15:38:53.389Z,14.57
2023-05-04T15:41:20.852Z,6.18
2023-05-04T15:43:48.176Z,7.87
2023-05-04T15:46:15.399Z,6.75
2023-05-04T15:48:43.075Z,6.60
2023-05-04T15:51:13.857Z,6.63
2023-05-04T15:53:41.316Z,6.22
2023-05-04T15:56:10.135Z,7.77
2023-05-04T15:58:37.802Z,6.57
2023-05-04T16:01:09.217Z,7.10
2023-05-04T16:03:38.054Z,8.95
2023-05-04T16:06:06.089Z,7.53
2023-05-04T16:08:33.408Z,9.47
2023-05-04T16:11:01.876Z,7.47
2023-05-04T16:13:30.835Z,8.88
2023-05-04T16:15:58.176Z,6.80
2023-05-04T16:18:25.574Z,7.80
2023-05-04T16:20:54.821Z,6.70
2023-05-04T16:23:22.083Z,8.68
2023-05-04T16:25:49.253Z,6.63
2023-05-04T16:28:17.322Z,6.65
2023-05-04T16:30:48.914Z,6.88
2023-05-04T16:33:16.168Z,9.33
2023-05-04T16:35:43.381Z,8.75
2023-05-04T16:38:12.072Z,8.85
2023-05-04T16:40:41.633Z,6.28
2023-05-04T16:43:10.541Z,6.80
2023-05-04T16:45:38.395Z,7.07
2023-05-04T16:48:07.584Z,6.30
2023-05-04T16:50:35.062Z,6.63
2023-05-04T16:53:02.369Z,7.03
2023-05-04T16:55:29.616Z,7.25
2023-05-04T16:57:57.291Z,7.10
2023-05-04T17:00:25.830Z,6.32
2023-05-04T17:02:53.775Z,6.03
2023-05-04T17:05:22.507Z,8.88
2023-05-04T17:07:49.774Z,6.28
2023-05-04T17:10:20.534Z,7.13
2023-05-04T17:12:47.789Z,7.25
2023-05-04T17:15:14.971Z,7.95
2023-05-04T17:17:42.391Z,8.10
2023-05-04T17:20:15.055Z,6.90
2023-05-04T17:22:45.348Z,8.13
2023-05-04T17:25:13.521Z,6.82
2023-05-04T17:27:41.482Z,7.97
2023-05-04T17:30:14.441Z,8.32
2023-05-04T17:32:42.039Z,7.80
2023-05-04T17:35:20.832Z,7.73
2023-05-04T17:37:57.604Z,7.50
2023-05-04T17:40:27.778Z,7.95
2023-05-04T17:42:55.732Z,8.70
2023-05-04T17:45:23.087Z,7.93
2023-05-04T17:47:51.029Z,7.60
2023-05-04T17:50:19.030Z,10.68
2023-05-04T17:52:51.690Z,8.20
2023-05-04T17:55:20.449Z,8.55
2023-05-04T17:57:47.823Z,9.52
2023-05-04T18:00:16.145Z,10.53
2023-05-04T18:02:43.594Z,8.95
2023-05-04T18:05:11.312Z,8.38
2023-05-04T18:07:38.848Z,9.43
2023-05-04T18:10:09.055Z,8.10
2023-05-04T18:12:40.242Z,9.20
2023-05-04T18:15:09.218Z,10.15
2023-05-04T18:17:37.962Z,9.18
2023-05-04T18:20:12.762Z,8.85
2023-05-04T18:22:41.112Z,9.48
2023-05-04T18:25:09.250Z,10.07
2023-05-04T18:27:36.935Z,8.48
2023-05-04T18:30:11.267Z,8.40
2023-05-04T18:32:38.774Z,8.77
2023-05-04T18:35:07.017Z,8.48
2023-05-04T18:37:34.569Z,8.90
2023-05-04T18:40:02.134Z,7.90
2023-05-04T18:42:29.483Z,8.07
2023-05-04T18:44:57.086Z,8.77
2023-05-04T18:47:25.838Z,8.02
2023-05-04T18:49:56.366Z,9.37
2023-05-04T18:52:23.940Z,10.52
2023-05-04T18:54:51.462Z,11.13
2023-05-04T18:57:19.315Z,9.35
2023-05-04T18:59:49.419Z,9.13
2023-05-04T19:02:17.493Z,9.43
2023-05-04T19:04:47.278Z,16.42
2023-05-04T19:07:15.745Z,11.68
2023-05-04T19:09:45.878Z,9.27
2023-05-04T19:12:14.272Z,10.50
2023-05-04T19:14:44.474Z,10.23
2023-05-04T19:17:11.812Z,8.40
2023-05-04T19:19:39.380Z,9.05
2023-05-04T19:22:08.240Z,8.40
2023-05-04T19:24:40.916Z,7.65
2023-05-04T19:27:08.166Z,9.40
2023-05-04T19:29:35.545Z,7.90
2023-05-04T19:32:11.949Z,15.93
2023-05-04T19:34:43.512Z,10.68
2023-05-04T19:37:12.342Z,12.63
2023-05-04T19:39:39.697Z,12.70
2023-05-04T19:42:06.978Z,13.30
2023-05-04T19:44:34.243Z,13.23
2023-05-04T19:47:01.601Z,16.85
2023-05-04T19:49:29.154Z,13.98
2023-05-04T19:51:56.328Z,15.73
2023-05-04T19:54:25.152Z,15.05
2023-05-04T19:56:53.078Z,16.13
2023-05-04T19:59:20.495Z,14.23
2023-05-04T20:01:47.805Z,10.82
2023-05-04T20:04:15.205Z,10.10
2023-05-04T20:06:43.069Z,9.80
2023-05-04T20:09:10.817Z,9.85
2023-05-04T20:11:39.639Z,10.27
2023-05-04T20:14:06.892Z,11.00
2023-05-04T20:16:34.614Z,11.63
2023-05-04T20:19:03.657Z,11.38
2023-05-04T20:21:32.382Z,11.93
2023-05-04T20:23:59.821Z,11.25
2023-05-04T20:26:27.034Z,11.55
2023-05-04T20:28:55.700Z,10.93
2023-05-04T20:31:23.519Z,11.38
2023-05-04T20:33:50.860Z,13.52
2023-05-04T20:36:18.098Z,11.88
2023-05-04T20:38:45.271Z,11.48
2023-05-04T20:41:12.837Z,9.80
2023-05-04T20:43:40.357Z,10.45
2023-05-04T20:46:09.019Z,8.73
2023-05-04T20:48:36.400Z,11.38
2023-05-04T20:51:14.440Z,9.73
2023-05-04T20:53:42.184Z,9.30
2023-05-04T20:56:09.401Z,10.48
2023-05-04T20:58:39.317Z,10.45
2023-05-04T21:01:08.287Z,9.15
2023-05-04T21:03:36.132Z,9.40
2023-05-04T21:06:05.071Z,9.63
2023-05-04T21:08:32.316Z,8.10
2023-05-04T21:11:00.075Z,10.15
2023-05-04T21:13:27.296Z,9.60
2023-05-04T21:15:54.536Z,9.43
2023-05-04T21:18:23.162Z,9.07
2023-05-04T21:20:50.452Z,8.90
2023-05-04T21:23:17.776Z,9.02
2023-05-04T21:25:45.341Z,10.13
2023-05-04T21:28:12.638Z,9.93
2023-05-04T21:30:41.648Z,9.53
2023-05-04T21:33:08.981Z,10.40
2023-05-04T21:35:37.585Z,9.50
2023-05-04T21:38:04.889Z,10.45
2023-05-04T21:40:34.004Z,10.75
2023-05-04T21:43:02.035Z,9.13
2023-05-04T21:45:31.163Z,10.75
2023-05-04T21:47:59.249Z,11.00
2023-05-04T21:50:27.363Z,10.93
2023-05-04T21:52:55.963Z,11.32
2023-05-04T21:55:23.382Z,10.27
2023-05-04T21:57:50.621Z,10.60
2023-05-04T22:00:19.254Z,10.02
2023-05-04T22:02:46.699Z,12.45
2023-05-04T22:05:14.067Z,10.73
2023-05-04T22:07:41.251Z,11.23
2023-05-04T22:10:12.620Z,11.80
2023-05-04T22:12:42.076Z,12.30
2023-05-04T22:15:10.999Z,13.90
2023-05-04T22:17:38.386Z,12.77
2023-05-04T22:20:07.157Z,11.33
2023-05-04T22:22:35.149Z,12.07
2023-05-04T22:25:02.451Z,13.10
2023-05-04T22:27:31.073Z,14.07
2023-05-04T22:29:58.334Z,11.25
2023-05-04T22:32:25.563Z,12.17
2023-05-04T22:34:52.871Z,10.80
2023-05-04T22:37:20.101Z,11.38
2023-05-04T22:39:47.407Z,11.60
2023-05-04T22:42:14.619Z,10.93
2023-05-04T22:44:43.251Z,13.20
2023-05-04T22:47:10.903Z,12.70
2023-05-04T22:49:38.053Z,12.63
2023-05-04T22:52:05.407Z,11.80
2023-05-04T22:54:32.724Z,12.07
2023-05-04T22:57:03.797Z,11.47
2023-05-04T22:59:31.761Z,10.13
2023-05-04T23:02:00.870Z,11.57
2023-05-04T23:04:28.208Z,11.88
2023-05-04T23:06:55.516Z,11.52
2023-05-04T23:09:22.869Z,11.40
2023-05-04T23:11:52.339Z,12.75
2023-05-04T23:14:19.579Z,12.52
2023-05-04T23:16:46.807Z,13.57
2023-05-04T23:19:15.784Z,13.30
2023-05-04T23:21:43.144Z,15.10
2023-05-04T23:24:10.478Z,14.32
2023-05-04T23:26:37.693Z,11.75
2023-05-04T23:29:04.931Z,11.20
2023-05-04T23:31:32.232Z,11.30
2023-05-04T23:33:59.494Z,12.63
2023-05-04T23:36:28.328Z,10.43
2023-05-04T23:38:55.526Z,9.93
2023-05-04T23:41:22.697Z,11.77
2023-05-04T23:43:49.933Z,10.98
2023-05-04T23:46:17.786Z,12.57
2023-05-04T23:48:46.421Z,10.75
2023-05-04T23:51:14.476Z,11.85
2023-05-04T23:53:43.239Z,10.48
2023-05-04T23:56:12.491Z,10.55
2023-05-04T23:58:41.220Z,11.40
